Time;durP1;ratioP1;P1;durP2;ratioP2;P2;SDS_P1;SDS_P2;PMS_P1;PMS_P2;Temp;Humidity;BMP_temperature;BMP_pressure;BME280_temperature;BME280_humidity;BME280_pressure;Samples;Min_cycle;Max_cycle;Signal;HPM_P1;HPM_P2
2023/05/04 00:00:23;;;;;;;5.75;4.38;;;7.20;96.70;;;;;;5073719;28;20224;-65
2023/05/04 00:02:52;;;;;;;6.38;4.40;;;7.20;97.00;;;;;;5073076;28;20688;-66
2023/05/04 00:05:18;;;;;;;7.28;5.00;;;7.10;97.30;;;;;;5073349;28;20204;-67
2023/05/04 00:07:45;;;;;;;7.35;4.82;;;7.10;97.50;;;;;;5072943;28;20236;-65
2023/05/04 00:10:12;;;;;;;7.18;4.25;;;7.10;97.70;;;;;;5073174;28;20612;-65
2023/05/04 00:12:39;;;;;;;8.45;4.50;;;7.00;97.90;;;;;;5073526;28;20197;-65
2023/05/04 00:15:07;;;;;;;6.20;4.38;;;7.00;98.20;;;;;;5073516;28;20203;-64
2023/05/04 00:17:34;;;;;;;6.43;4.05;;;6.90;98.50;;;;;;5072997;28;20243;-65
2023/05/04 00:20:02;;;;;;;12.05;4.30;;;7.00;98.80;;;;;;5073189;28;20225;-65
2023/05/04 00:22:29;;;;;;;4.63;4.22;;;6.90;99.00;;;;;;5073123;28;20558;-65
2023/05/04 00:24:56;;;;;;;5.97;4.45;;;6.90;98.90;;;;;;5073205;28;20197;-64
2023/05/04 00:27:23;;;;;;;6.82;3.70;;;6.90;99.00;;;;;;5075308;28;20549;-64
2023/05/04 00:29:49;;;;;;;5.63;4.72;;;6.90;99.20;;;;;;5076608;28;20581;-65
2023/05/04 00:32:16;;;;;;;6.63;3.55;;;6.90;99.30;;;;;;5077374;28;20307;-65
2023/05/04 00:34:43;;;;;;;7.00;4.22;;;6.80;99.60;;;;;;5077251;28;20223;-65
2023/05/04 00:37:11;;;;;;;6.00;4.65;;;6.80;99.50;;;;;;5077234;28;20223;-65
2023/05/04 00:39:37;;;;;;;7.45;4.60;;;6.80;99.50;;;;;;5077212;28;20203;-64
2023/05/04 00:42:04;;;;;;;5.15;4.18;;;6.80;99.70;;;;;;5077275;28;20211;-65
2023/05/04 00:44:33;;;;;;;5.95;4.72;;;6.70;99.90;;;;;;5077460;28;20215;-65
2023/05/04 00:47:00;;;;;;;7.63;4.10;;;6.70;99.90;;;;;;5077000;28;20212;-65
2023/05/04 00:49:27;;;;;;;6.93;5.35;;;6.60;99.90;;;;;;5077225;28;20334;-66
2023/05/04 00:51:56;;;;;;;8.18;5.25;;;6.60;99.90;;;;;;5076727;28;20232;-65
2023/05/04 00:54:25;;;;;;;5.70;5.10;;;6.50;99.90;;;;;;5076543;28;20694;-66
2023/05/04 00:56:52;;;;;;;7.38;4.78;;;6.50;99.90;;;;;;5076641;28;20274;-65
2023/05/04 00:59:19;;;;;;;5.65;3.95;;;6.40;99.90;;;;;;5076368;28;20690;-64
2023/05/04 01:01:46;;;;;;;5.25;4.20;;;6.30;99.90;;;;;;5076569;28;20225;-65
2023/05/04 01:04:13;;;;;;;5.78;4.57;;;6.30;99.90;;;;;;5079147;28;20208;-65
2023/05/04 01:06:47;;;;;;;5.05;4.13;;;6.20;99.90;;;;;;5079989;28;20193;-66
2023/05/04 01:09:22;;;;;;;5.85;4.70;;;6.20;99.90;;;;;;5078078;28;20204;-64
2023/05/04 01:12:04;;;;;;;5.80;5.10;;;6.10;99.90;;;;;;5076852;28;20601;-65
2023/05/04 01:14:31;;;;;;;7.40;4.50;;;6.10;99.90;;;;;;5078626;28;20189;-65
2023/05/04 01:16:59;;;;;;;6.43;4.57;;;6.00;99.90;;;;;;5076265;28;20217;-65
2023/05/04 01:19:28;;;;;;;7.28;4.38;;;6.00;99.90;;;;;;5076452;28;20208;-66
2023/05/04 01:21:56;;;;;;;6.22;4.07;;;6.00;99.90;;;;;;5076507;28;20228;-67
2023/05/04 01:24:23;;;;;;;5.90;4.80;;;5.90;99.90;;;;;;5076343;28;20274;-66
2023/05/04 01:26:56;;;;;;;5.13;4.60;;;5.90;99.90;;;;;;5076101;28;20296;-64
2023/05/04 01:29:32;;;;;;;5.47;4.70;;;5.80;99.90;;;;;;5076114;28;20185;-66
2023/05/04 01:32:01;;;;;;;4.75;4.30;;;5.80;99.90;;;;;;5076848;28;20236;-65
2023/05/04 01:34:28;;;;;;;5.18;4.18;;;5.80;99.90;;;;;;5076634;28;20699;-65
2023/05/04 01:36:56;;;;;;;6.03;3.92;;;5.70;99.90;;;;;;5076084;28;20221;-64
2023/05/04 01:39:23;;;;;;;4.90;4.40;;;5.70;99.90;;;;;;5075417;28;20662;-64
2023/05/04 01:41:50;;;;;;;7.13;4.50;;;5.70;99.90;;;;;;5076659;28;20236;-66
2023/05/04 01:44:16;;;;;;;5.05;4.28;;;5.70;99.90;;;;;;5076701;28;20216;-64
2023/05/04 01:46:43;;;;;;;9.68;4.57;;;5.70;99.90;;;;;;5076602;28;20198;-65
2023/05/04 01:49:10;;;;;;;8.23;4.53;;;5.60;99.90;;;;;;5076054;28;20201;-64
2023/05/04 01:51:37;;;;;;;9.45;4.35;;;5.60;99.90;;;;;;5077824;28;20217;-64
2023/05/04 01:54:05;;;;;;;7.78;4.70;;;5.60;99.90;;;;;;5077590;28;20205;-65
2023/05/04 01:56:31;;;;;;;7.35;5.07;;;5.60;99.90;;;;;;5076288;28;20223;-65
2023/05/04 01:58:58;;;;;;;9.82;5.60;;;5.60;99.90;;;;;;5080110;28;20205;-64
2023/05/04 02:01:25;;;;;;;6.18;4.50;;;5.60;99.90;;;;;;5081756;28;20316;-66
2023/05/04 02:03:52;;;;;;;6.75;4.50;;;5.60;99.90;;;;;;5080767;28;20578;-65
2023/05/04 02:06:18;;;;;;;5.43;4.60;;;5.50;99.90;;;;;;5079564;28;20679;-64
2023/05/04 02:08:45;;;;;;;5.90;4.80;;;5.50;99.90;;;;;;5079985;28;20205;-65
2023/05/04 02:11:15;;;;;;;5.90;4.40;;;5.50;99.90;;;;;;5079705;28;20608;-65
2023/05/04 02:13:42;;;;;;;8.38;5.53;;;5.50;99.90;;;;;;5078869;28;20298;-65
2023/05/04 02:16:08;;;;;;;7.28;4.82;;;5.50;99.90;;;;;;5078973;28;20197;-66
2023/05/04 02:18:35;;;;;;;11.50;5.05;;;5.50;99.90;;;;;;5079789;28;20201;-65
2023/05/04 02:21:02;;;;;;;8.43;4.38;;;5.50;99.90;;;;;;5079335;28;20216;-65
2023/05/04 02:23:29;;;;;;;5.60;4.78;;;5.50;99.90;;;;;;5077287;28;20212;-65
2023/05/04 02:25:56;;;;;;;7.15;4.60;;;5.40;99.90;;;;;;5074927;28;20205;-65
2023/05/04 02:28:24;;;;;;;8.70;4.88;;;5.40;99.90;;;;;;5074966;28;20193;-65
2023/05/04 02:30:51;;;;;;;7.82;4.72;;;5.40;99.90;;;;;;5074822;28;20609;-64
2023/05/04 02:33:17;;;;;;;5.38;4.22;;;5.40;99.90;;;;;;5075271;28;20207;-66
2023/05/04 02:35:44;;;;;;;7.85;4.22;;;5.30;99.90;;;;;;5075092;28;20201;-65
2023/05/04 02:38:11;;;;;;;6.05;4.72;;;5.30;99.90;;;;;;5074740;28;20252;-64
2023/05/04 02:40:38;;;;;;;6.93;4.90;;;5.30;99.90;;;;;;5074646;28;20220;-65
2023/05/04 02:43:04;;;;;;;6.95;4.10;;;5.20;99.90;;;;;;5074570;28;20209;-65
2023/05/04 02:45:33;;;;;;;8.00;5.07;;;5.20;99.90;;;;;;5074637;28;20556;-66
2023/05/04 02:47:59;;;;;;;6.45;4.38;;;5.20;99.90;;;;;;5074600;28;20208;-65
2023/05/04 02:50:26;;;;;;;6.38;4.93;;;5.20;99.90;;;;;;5073458;28;20221;-65
2023/05/04 02:52:53;;;;;;;6.70;5.15;;;5.20;99.90;;;;;;5074554;28;20201;-64
2023/05/04 02:55:20;;;;;;;6.32;4.70;;;5.20;99.90;;;;;;5082518;28;20551;-65
2023/05/04 02:57:46;;;;;;;11.27;4.25;;;5.20;99.90;;;;;;5076582;28;20221;-64
2023/05/04 03:00:14;;;;;;;5.43;4.00;;;5.10;99.90;;;;;;5074407;28;20221;-65
2023/05/04 03:02:42;;;;;;;5.57;4.82;;;5.20;99.90;;;;;;5074304;28;20208;-65
2023/05/04 03:05:09;;;;;;;4.10;3.55;;;5.10;99.90;;;;;;5074166;28;20264;-66
2023/05/04 03:07:36;;;;;;;5.57;4.95;;;5.10;99.90;;;;;;5073760;28;20200;-64
2023/05/04 03:10:03;;;;;;;5.85;4.05;;;5.10;99.90;;;;;;5073756;28;20228;-63
2023/05/04 03:12:29;;;;;;;5.65;4.43;;;5.10;99.90;;;;;;5074119;28;20192;-65
2023/05/04 03:14:56;;;;;;;5.88;4.22;;;5.10;99.90;;;;;;5074054;28;20215;-65
2023/05/04 03:17:23;;;;;;;6.45;4.13;;;5.10;99.90;;;;;;5073874;28;20642;-65
2023/05/04 03:19:51;;;;;;;6.82;4.18;;;5.10;99.90;;;;;;5073542;28;20750;-65
2023/05/04 03:22:18;;;;;;;5.65;3.67;;;5.00;99.90;;;;;;5073885;28;20205;-66
2023/05/04 03:24:44;;;;;;;7.22;4.97;;;5.00;99.90;;;;;;5073749;28;20670;-64
2023/05/04 03:27:11;;;;;;;6.80;4.40;;;5.00;99.90;;;;;;5073488;28;20208;-64
2023/05/04 03:29:38;;;;;;;5.70;4.05;;;5.00;99.90;;;;;;5073441;28;20674;-65
2023/05/04 03:32:05;;;;;;;8.82;4.28;;;5.00;99.90;;;;;;5073495;28;20694;-65
2023/05/04 03:34:32;;;;;;;7.80;4.75;;;5.00;99.90;;;;;;5073719;28;20205;-65
2023/05/04 03:37:00;;;;;;;5.70;4.38;;;5.00;99.90;;;;;;5073736;28;20220;-65
2023/05/04 03:39:27;;;;;;;5.00;4.03;;;5.00;99.90;;;;;;5073841;28;20208;-65
2023/05/04 03:41:54;;;;;;;5.57;4.07;;;5.00;99.90;;;;;;5073892;28;20228;-64
2023/05/04 03:44:20;;;;;;;10.77;4.35;;;5.10;99.90;;;;;;5073792;28;20212;-64
2023/05/04 03:46:47;;;;;;;11.43;3.78;;;5.10;99.90;;;;;;5073454;28;20208;-64
2023/05/04 03:49:14;;;;;;;13.98;4.40;;;5.10;99.90;;;;;;5073904;28;20205;-65
2023/05/04 03:51:41;;;;;;;6.07;4.13;;;5.20;99.90;;;;;;5073910;28;20255;-64
2023/05/04 03:54:09;;;;;;;6.80;4.20;;;5.10;99.90;;;;;;5074553;28;20209;-65
2023/05/04 03:56:36;;;;;;;7.82;3.63;;;5.20;99.90;;;;;;5074657;28;20205;-64
2023/05/04 03:59:02;;;;;;;8.43;4.00;;;5.20;99.90;;;;;;5074581;28;20220;-64
2023/05/04 04:01:29;;;;;;;8.38;3.70;;;5.20;99.90;;;;;;5074643;28;20259;-64
2023/05/04 04:03:56;;;;;;;13.43;3.97;;;5.30;99.90;;;;;;5073975;28;20211;-62
2023/05/04 04:06:23;;;;;;;6.85;4.35;;;5.30;99.90;;;;;;5073377;28;20208;-63
2023/05/04 04:11:39;;;;;;;8.07;4.00;;;5.40;99.90;;;;;;5168078;22;21110;-59
2023/05/04 04:14:05;;;;;;;6.93;4.25;;;5.50;99.90;;;;;;5092395;28;20205;-59
2023/05/04 04:16:32;;;;;;;8.32;4.55;;;5.60;99.90;;;;;;5092880;28;20208;-60
2023/05/04 04:19:00;;;;;;;5.07;3.63;;;5.70;99.90;;;;;;5092702;28;20670;-62
2023/05/04 04:21:27;;;;;;;6.65;3.97;;;5.90;99.90;;;;;;5091958;28;20220;-59
2023/05/04 04:23:54;;;;;;;8.02;4.13;;;6.20;99.90;;;;;;5091758;28;20204;-61
2023/05/04 04:26:21;;;;;;;6.40;3.60;;;6.50;99.90;;;;;;5091574;28;20200;-61
2023/05/04 04:28:49;;;;;;;8.40;4.07;;;6.70;99.90;;;;;;5091383;28;20223;-61
2023/05/04 04:31:17;;;;;;;5.70;3.90;;;6.70;99.90;;;;;;5091905;28;20343;-59
2023/05/04 04:33:44;;;;;;;5.72;3.83;;;6.70;99.90;;;;;;5091718;28;20674;-61
2023/05/04 04:36:11;;;;;;;8.93;3.83;;;6.70;99.90;;;;;;5092412;28;20211;-60
2023/05/04 04:38:38;;;;;;;7.80;4.32;;;6.80;99.90;;;;;;5092162;28;20200;-61
2023/05/04 04:41:05;;;;;;;5.28;4.40;;;6.90;99.90;;;;;;5092464;28;20248;-61
2023/05/04 04:43:33;;;;;;;7.93;4.03;;;7.10;99.90;;;;;;5091718;28;20697;-61
2023/05/04 04:46:02;;;;;;;7.90;3.60;;;7.20;99.90;;;;;;5093169;28;20208;-61
2023/05/04 04:48:30;;;;;;;7.20;3.83;;;7.40;99.90;;;;;;5092784;28;20200;-60
2023/05/04 04:50:57;;;;;;;7.60;3.40;;;7.70;99.90;;;;;;5092063;28;20213;-60
2023/05/04 04:53:24;;;;;;;4.10;3.60;;;7.90;99.90;;;;;;5091024;28;20205;-60
2023/05/04 04:55:51;;;;;;;4.38;3.67;;;8.10;99.90;;;;;;5091586;28;20200;-60
2023/05/04 04:58:17;;;;;;;5.65;3.75;;;8.30;99.90;;;;;;5091356;28;20201;-60
2023/05/04 05:00:44;;;;;;;7.78;3.90;;;8.40;99.90;;;;;;5091425;28;20219;-62
2023/05/04 05:03:12;;;;;;;8.85;4.53;;;8.50;99.90;;;;;;5092596;28;20227;-61
2023/05/04 05:05:39;;;;;;;6.55;4.28;;;8.60;99.90;;;;;;5092336;28;20563;-61
2023/05/04 05:08:06;;;;;;;6.10;4.32;;;8.70;99.90;;;;;;5092832;28;20236;-60
2023/05/04 05:10:32;;;;;;;5.60;3.83;;;8.70;99.90;;;;;;5091949;28;20305;-61
2023/05/04 05:12:59;;;;;;;8.63;5.23;;;8.70;99.20;;;;;;5091242;28;20501;-60
2023/05/04 05:15:26;;;;;;;8.83;3.97;;;8.70;98.90;;;;;;5091165;28;20810;-59
2023/05/04 05:17:53;;;;;;;7.93;4.43;;;8.70;98.60;;;;;;5090571;28;20442;-60
2023/05/04 05:20:22;;;;;;;9.23;3.60;;;8.80;98.30;;;;;;5091396;28;20803;-61
2023/05/04 05:22:50;;;;;;;5.77;3.10;;;8.90;97.70;;;;;;5078422;28;20494;-60
2023/05/04 05:25:17;;;;;;;5.50;3.50;;;9.00;97.30;;;;;;5080051;28;20451;-61
2023/05/04 05:27:44;;;;;;;5.93;4.50;;;9.10;96.60;;;;;;5078498;28;20453;-61
2023/05/04 05:30:12;;;;;;;7.88;4.60;;;9.10;95.90;;;;;;5077364;28;20948;-61
2023/05/04 05:32:39;;;;;;;12.05;4.38;;;9.20;95.20;;;;;;5077665;28;20430;-61
2023/05/04 05:35:08;;;;;;;8.23;4.33;;;9.20;94.70;;;;;;5078446;28;20205;-61
2023/05/04 05:37:36;;;;;;;5.37;3.90;;;9.30;94.20;;;;;;5076596;28;20447;-60
2023/05/04 05:40:06;;;;;;;6.80;3.70;;;9.40;93.90;;;;;;5076817;28;20824;-60
2023/05/04 05:42:33;;;;;;;8.00;4.23;;;9.50;93.70;;;;;;5076792;28;20470;-61
2023/05/04 05:45:03;;;;;;;6.17;4.10;;;9.60;93.30;;;;;;5076491;28;20454;-61
2023/05/04 05:47:29;;;;;;;5.37;4.20;;;9.60;92.90;;;;;;5077011;28;20450;-58
2023/05/04 05:49:56;;;;;;;7.70;4.20;;;9.70;92.90;;;;;;5078780;28;20452;-61
2023/05/04 05:52:23;;;;;;;6.80;4.67;;;9.80;92.30;;;;;;5080195;28;20542;-59
2023/05/04 05:54:51;;;;;;;6.90;4.10;;;9.80;91.90;;;;;;5077268;28;20953;-61
2023/05/04 05:57:19;;;;;;;5.90;3.83;;;9.90;91.40;;;;;;5076565;28;20445;-62
2023/05/04 05:59:46;;;;;;;6.10;4.10;;;9.90;90.80;;;;;;5078526;28;20502;-59
2023/05/04 06:02:13;;;;;;;10.03;5.00;;;10.00;89.90;;;;;;5077030;28;20891;-61
2023/05/04 06:04:40;;;;;;;6.33;4.07;;;10.10;88.20;;;;;;5077147;28;20452;-60
2023/05/04 06:07:07;;;;;;;10.33;7.40;;;10.10;86.70;;;;;;5076578;28;20944;-60
2023/05/04 06:09:34;;;;;;;7.30;4.57;;;10.10;85.50;;;;;;5077336;28;20816;-60
2023/05/04 06:12:03;;;;;;;7.47;4.37;;;10.10;84.40;;;;;;5076533;28;20487;-61
2023/05/04 06:14:30;;;;;;;4.60;3.60;;;10.10;83.40;;;;;;5077252;28;20823;-60
2023/05/04 06:16:57;;;;;;;6.20;4.73;;;10.20;83.00;;;;;;5077177;28;20447;-61
2023/05/04 06:19:24;;;;;;;6.20;4.30;;;10.20;81.60;;;;;;5076658;28;20442;-60
2023/05/04 06:21:50;;;;;;;8.13;5.20;;;10.20;81.00;;;;;;5076910;28;20810;-61
2023/05/04 06:24:17;;;;;;;8.60;4.53;;;10.30;80.30;;;;;;5077233;28;20515;-61
2023/05/04 06:26:44;;;;;;;4.17;3.60;;;10.50;79.40;;;;;;5077598;28;20526;-60
2023/05/04 06:29:12;;;;;;;5.80;3.80;;;10.60;77.90;;;;;;5077436;28;20453;-60
2023/05/04 06:31:39;;;;;;;7.00;4.60;;;10.70;76.50;;;;;;5078076;28;20483;-63
2023/05/04 06:34:05;;;;;;;4.87;3.90;;;10.90;75.50;;;;;;5078098;28;20439;-60
2023/05/04 06:36:32;;;;;;;6.30;4.30;;;11.10;74.20;;;;;;5081669;28;20439;-60
2023/05/04 06:38:59;;;;;;;7.37;3.73;;;11.20;72.70;;;;;;5076991;28;20444;-60
2023/05/04 06:41:26;;;;;;;10.23;4.03;;;11.40;71.40;;;;;;5077945;28;20469;-62
2023/05/04 06:43:52;;;;;;;5.30;4.17;;;11.60;70.30;;;;;;5077875;28;20458;-58
2023/05/04 06:46:20;;;;;;;7.57;5.37;;;11.80;69.20;;;;;;5077442;28;20446;-61
2023/05/04 06:48:47;;;;;;;7.80;4.93;;;12.10;68.20;;;;;;5077086;28;20454;-60
2023/05/04 06:51:14;;;;;;;9.57;6.07;;;12.30;66.90;;;;;;5078195;28;20578;-61
2023/05/04 06:53:41;;;;;;;7.33;5.80;;;12.40;65.40;;;;;;5078246;28;20451;-63
2023/05/04 06:56:08;;;;;;;16.53;6.97;;;12.40;64.50;;;;;;5078179;28;20808;-60
2023/05/04 06:58:35;;;;;;;14.63;7.77;;;12.50;63.90;;;;;;5078045;28;20443;-62
2023/05/04 07:01:02;;;;;;;13.73;7.50;;;12.50;63.50;;;;;;5077748;28;20473;-63
2023/05/04 07:03:30;;;;;;;13.47;7.50;;;12.60;63.10;;;;;;5077962;28;20439;-61
2023/05/04 07:05:57;;;;;;;8.70;5.77;;;12.60;62.60;;;;;;5076591;28;20459;-62
2023/05/04 07:08:23;;;;;;;10.17;7.40;;;12.70;62.20;;;;;;5077205;28;20450;-61
2023/05/04 07:10:50;;;;;;;8.23;6.93;;;12.80;61.70;;;;;;5076636;28;20490;-61
2023/05/04 07:13:17;;;;;;;7.87;7.07;;;13.00;61.20;;;;;;5076889;28;20821;-62
2023/05/04 07:15:44;;;;;;;7.80;5.87;;;13.20;60.80;;;;;;5077466;28;20451;-62
2023/05/04 07:18:11;;;;;;;9.20;5.83;;;13.30;60.00;;;;;;5077524;28;20440;-61
2023/05/04 07:20:42;;;;;;;8.07;5.20;;;13.30;59.30;;;;;;5077338;28;20439;-63
2023/05/04 07:23:08;;;;;;;8.87;5.47;;;13.30;59.20;;;;;;5077513;28;20439;-63
2023/05/04 07:25:35;;;;;;;8.00;5.07;;;13.30;59.10;;;;;;5078466;28;20458;-62
2023/05/04 07:28:02;;;;;;;8.00;5.60;;;13.40;58.90;;;;;;5085638;28;20451;-62
2023/05/04 07:30:29;;;;;;;11.93;5.30;;;13.50;58.80;;;;;;5085689;28;20452;-63
2023/05/04 07:32:56;;;;;;;5.80;5.17;;;13.70;58.60;;;;;;5085536;28;20827;-64
2023/05/04 07:35:23;;;;;;;12.50;4.90;;;13.90;57.80;;;;;;5078184;28;20486;-65
2023/05/04 07:37:51;;;;;;;5.93;4.57;;;14.10;57.20;;;;;;5077367;28;20450;-64
2023/05/04 07:40:19;;;;;;;7.80;5.23;;;14.20;56.80;;;;;;5077515;28;20454;-64
2023/05/04 07:42:45;;;;;;;9.07;5.77;;;14.20;56.40;;;;;;5077185;28;20554;-59
2023/05/04 07:45:14;;;;;;;13.73;4.80;;;14.30;56.20;;;;;;5076208;28;20527;-62
2023/05/04 07:47:41;;;;;;;7.87;3.60;;;14.40;56.50;;;;;;5075704;28;20451;-62
2023/05/04 07:50:09;;;;;;;12.43;4.10;;;14.60;55.60;;;;;;5075590;28;20443;-61
2023/05/04 07:52:35;;;;;;;9.30;4.50;;;14.80;55.20;;;;;;5076265;28;20478;-58
2023/05/04 07:55:04;;;;;;;8.40;3.80;;;14.90;54.60;;;;;;5076980;28;20591;-61
2023/05/04 07:57:31;;;;;;;6.57;3.67;;;14.90;54.40;;;;;;5077360;28;20969;-59
2023/05/04 07:59:58;;;;;;;9.90;4.83;;;15.00;54.30;;;;;;5075406;28;20534;-59
2023/05/04 08:02:24;;;;;;;7.70;3.57;;;15.20;54.00;;;;;;5074781;28;20463;-58
2023/05/04 08:04:51;;;;;;;6.67;4.00;;;15.40;53.50;;;;;;5074097;28;20443;-59
2023/05/04 08:07:19;;;;;;;4.73;3.40;;;15.50;53.00;;;;;;5074504;28;20443;-58
2023/05/04 08:09:46;;;;;;;8.77;4.00;;;15.50;52.70;;;;;;5074499;28;20487;-59
2023/05/04 08:12:14;;;;;;;11.53;3.97;;;15.40;52.50;;;;;;5074382;28;20569;-59
2023/05/04 08:14:41;;;;;;;4.50;3.70;;;15.40;52.40;;;;;;5075464;28;20500;-59
2023/05/04 08:17:08;;;;;;;5.87;3.80;;;15.40;52.20;;;;;;5077372;28;20459;-62
2023/05/04 08:19:34;;;;;;;6.63;4.33;;;15.50;52.30;;;;;;5075633;28;20462;-67
2023/05/04 08:22:01;;;;;;;13.80;4.93;;;15.60;52.20;;;;;;5076052;28;20462;-62
2023/05/04 08:24:29;;;;;;;5.33;3.67;;;15.80;52.00;;;;;;5075225;28;20439;-61
2023/05/04 08:26:56;;;;;;;6.30;3.60;;;16.00;51.80;;;;;;5075554;28;20455;-61
2023/05/04 08:29:24;;;;;;;3.93;3.57;;;16.20;51.40;;;;;;5075464;28;20952;-60
2023/05/04 08:31:51;;;;;;;5.90;3.80;;;16.30;51.20;;;;;;5076287;28;20486;-61
2023/05/04 08:34:18;;;;;;;9.30;4.33;;;16.60;50.90;;;;;;5075532;28;20447;-61
2023/05/04 08:36:45;;;;;;;8.20;3.93;;;16.80;50.40;;;;;;5075878;28;20809;-62
2023/05/04 08:39:12;;;;;;;7.30;3.60;;;16.90;49.80;;;;;;5077713;28;20454;-61
2023/05/04 08:41:39;;;;;;;8.30;3.70;;;17.00;49.50;;;;;;5083954;28;20471;-61
2023/05/04 08:44:07;;;;;;;8.13;4.53;;;16.90;49.30;;;;;;5083640;28;20477;-61
2023/05/04 08:46:37;;;;;;;6.63;3.57;;;16.80;49.10;;;;;;5088224;28;20956;-62
2023/05/04 08:49:03;;;;;;;3.77;2.90;;;16.90;48.90;;;;;;5088843;28;20423;-62
2023/05/04 08:51:34;;;;;;;4.40;3.10;;;17.10;48.60;;;;;;5080157;28;20872;-61
2023/05/04 08:54:03;;;;;;;6.77;3.97;;;17.20;47.90;;;;;;5075408;28;20793;-61
2023/05/04 08:56:30;;;;;;;7.77;3.63;;;17.10;47.80;;;;;;5075361;28;20504;-62
2023/05/04 08:59:00;;;;;;;5.30;3.37;;;17.30;47.90;;;;;;5078395;28;20458;-61
2023/05/04 09:01:28;;;;;;;6.50;3.10;;;17.60;47.60;;;;;;5078964;28;20467;-61
2023/05/04 09:03:57;;;;;;;10.77;5.80;;;17.70;47.20;;;;;;5078672;28;20449;-61
2023/05/04 09:06:25;;;;;;;9.77;4.13;;;17.80;46.90;;;;;;5080127;28;20444;-61
2023/05/04 09:08:51;;;;;;;5.33;3.50;;;18.00;46.70;;;;;;5080018;28;20447;-59
2023/05/04 09:11:18;;;;;;;4.83;3.50;;;18.10;46.10;;;;;;5079516;28;20546;-61
2023/05/04 09:13:45;;;;;;;6.53;3.83;;;18.10;45.60;;;;;;5079455;28;20412;-62
2023/05/04 09:16:13;;;;;;;4.33;3.47;;;18.00;45.40;;;;;;5079551;28;20439;-62
2023/05/04 09:18:43;;;;;;;9.70;3.60;;;17.90;44.90;;;;;;5079076;28;20469;-60
2023/05/04 09:21:11;;;;;;;6.50;3.50;;;17.70;44.60;;;;;;5078509;28;20463;-61
2023/05/04 09:23:48;;;;;;;7.47;3.43;;;17.70;44.40;;;;;;5078567;28;20447;-62
2023/05/04 09:26:15;;;;;;;7.03;3.90;;;17.50;43.70;;;;;;5078381;28;20944;-61
2023/05/04 09:28:42;;;;;;;5.60;3.83;;;17.50;43.90;;;;;;5079192;28;20443;-61
2023/05/04 09:31:10;;;;;;;4.90;3.20;;;17.50;43.70;;;;;;5079369;28;20503;-60
2023/05/04 09:33:37;;;;;;;7.20;3.50;;;17.60;43.90;;;;;;5078203;28;20936;-60
2023/05/04 09:36:15;;;;;;;3.87;3.43;;;17.70;43.70;;;;;;5078169;28;20538;-61
2023/05/04 09:38:43;;;;;;;8.27;3.70;;;17.90;43.60;;;;;;5078397;28;20478;-62
2023/05/04 09:41:10;;;;;;;7.93;4.00;;;18.00;43.50;;;;;;5077827;28;20471;-61
2023/05/04 09:43:38;;;;;;;4.83;3.20;;;18.20;43.20;;;;;;5078376;28;20821;-61
2023/05/04 09:46:05;;;;;;;6.23;3.67;;;18.30;43.10;;;;;;5077848;28;20435;-63
2023/05/04 09:48:32;;;;;;;5.30;3.60;;;18.40;42.90;;;;;;5077706;28;20447;-61
2023/05/04 09:51:01;;;;;;;7.90;3.43;;;18.50;42.40;;;;;;5076822;28;20482;-62
2023/05/04 09:53:30;;;;;;;6.00;4.60;;;18.50;41.90;;;;;;5076562;28;21006;-62
2023/05/04 09:56:04;;;;;;;6.00;3.90;;;18.60;42.00;;;;;;5077024;28;20443;-63
2023/05/04 09:58:31;;;;;;;7.50;3.57;;;18.60;41.70;;;;;;5076786;28;20798;-62
2023/05/04 10:01:00;;;;;;;6.07;3.50;;;18.50;41.70;;;;;;5076989;28;20444;-62
2023/05/04 10:03:27;;;;;;;4.90;3.27;;;18.60;42.00;;;;;;5076847;28;20455;-61
2023/05/04 10:05:54;;;;;;;4.60;3.23;;;18.70;42.00;;;;;;5076823;28;20492;-62
2023/05/04 10:08:22;;;;;;;5.60;3.07;;;18.90;41.80;;;;;;5076554;28;20450;-62
2023/05/04 10:10:52;;;;;;;4.57;3.87;;;19.00;41.60;;;;;;5077333;28;20443;-61
2023/05/04 10:13:19;;;;;;;3.23;2.93;;;19.30;41.60;;;;;;5076702;28;20539;-61
2023/05/04 10:16:04;;;;;;;6.67;3.40;;;19.50;41.20;;;;;;5077694;28;20821;-60
2023/05/04 10:18:51;;;;;;;5.30;3.27;;;19.80;41.10;;;;;;5113837;22;20959;-68
2023/05/04 10:21:29;;;;;;;8.37;3.17;;;20.10;40.80;;;;;;5095840;28;20873;-67
2023/05/04 10:24:20;;;;;;;4.10;3.13;;;20.30;40.50;;;;;;5096261;28;20422;-67
2023/05/04 10:27:02;;;;;;;6.90;3.90;;;20.60;40.20;;;;;;5095855;28;20424;-64
2023/05/04 10:29:32;;;;;;;7.30;3.93;;;20.80;39.90;;;;;;5096564;28;20477;-67
2023/05/04 10:31:59;;;;;;;4.97;3.90;;;20.90;39.40;;;;;;5096128;28;21001;-67
2023/05/04 10:34:27;;;;;;;5.90;4.40;;;20.90;39.20;;;;;;5096052;28;20829;-66
2023/05/04 10:36:54;;;;;;;3.70;3.30;;;20.90;39.10;;;;;;5096522;28;20475;-66
2023/05/04 10:39:22;;;;;;;5.40;3.20;;;20.90;38.80;;;;;;5097150;28;20447;-67
2023/05/04 10:42:02;;;;;;;4.80;3.53;;;21.00;38.90;;;;;;5097525;28;20445;-67
2023/05/04 10:44:30;;;;;;;4.50;3.57;;;21.20;38.80;;;;;;5098446;28;20802;-68
2023/05/04 10:46:58;;;;;;;4.13;3.40;;;21.40;38.60;;;;;;5097463;28;20919;-67
2023/05/04 10:49:25;;;;;;;6.80;3.50;;;21.40;38.40;;;;;;5097765;28;20472;-65
2023/05/04 10:52:10;;;;;;;5.90;3.00;;;21.40;38.10;;;;;;5099178;28;20476;-67
2023/05/04 10:54:38;;;;;;;5.30;3.40;;;21.40;38.10;;;;;;5099462;28;20902;-67
2023/05/04 10:57:07;;;;;;;6.20;3.50;;;21.50;38.10;;;;;;5097560;28;20939;-67
2023/05/04 10:59:35;;;;;;;3.97;3.13;;;21.50;38.50;;;;;;5097901;28;20455;-67
2023/05/04 11:02:02;;;;;;;5.43;3.77;;;21.40;37.80;;;;;;5096457;28;20946;-67
2023/05/04 11:04:29;;;;;;;4.70;4.30;;;21.30;37.70;;;;;;5094865;28;20954;-66
2023/05/04 11:06:58;;;;;;;10.10;4.20;;;21.10;37.60;;;;;;5093940;28;20978;-66
2023/05/04 11:09:26;;;;;;;4.43;3.33;;;20.80;37.80;;;;;;5094074;28;20825;-67
2023/05/04 11:11:56;;;;;;;10.80;3.87;;;20.50;38.00;;;;;;5094237;28;20878;-66
2023/05/04 11:14:29;;;;;;;5.23;3.50;;;20.40;38.10;;;;;;5094451;28;20475;-66
2023/05/04 11:17:06;;;;;;;5.20;3.20;;;20.50;38.20;;;;;;5094453;28;20862;-66
2023/05/04 11:19:33;;;;;;;4.90;3.53;;;20.60;38.20;;;;;;5093683;28;20488;-64
2023/05/04 11:22:01;;;;;;;6.87;3.13;;;20.80;38.00;;;;;;5094202;28;20588;-64
2023/05/04 11:24:42;;;;;;;6.80;3.60;;;20.80;37.50;;;;;;5093507;28;20457;-64
2023/05/04 11:27:09;;;;;;;5.17;3.50;;;20.80;37.10;;;;;;5093340;28;20988;-64
2023/05/04 11:29:37;;;;;;;5.80;3.70;;;20.60;37.00;;;;;;5093343;28;20455;-64
2023/05/04 11:32:04;;;;;;;3.93;2.63;;;20.40;37.00;;;;;;5093706;28;20493;-65
2023/05/04 11:34:31;;;;;;;8.10;2.83;;;20.30;37.30;;;;;;5094196;28;20443;-65
2023/05/04 11:36:58;;;;;;;6.83;3.87;;;20.30;37.60;;;;;;5093822;28;20466;-64
2023/05/04 11:39:25;;;;;;;5.63;3.10;;;20.40;37.70;;;;;;5094668;28;20446;-64
2023/05/04 11:41:54;;;;;;;6.30;3.30;;;20.50;37.60;;;;;;5094148;28;20511;-65
2023/05/04 11:44:22;;;;;;;7.90;3.87;;;20.50;37.50;;;;;;5094224;28;20810;-62
2023/05/04 11:46:50;;;;;;;9.57;3.97;;;20.60;37.60;;;;;;5094748;28;20476;-63
2023/05/04 11:49:18;;;;;;;6.93;3.70;;;20.80;37.50;;;;;;5095200;28;20533;-63
2023/05/04 11:51:45;;;;;;;6.53;3.80;;;21.00;37.20;;;;;;5093717;28;20447;-64
2023/05/04 11:54:20;;;;;;;10.00;3.50;;;21.50;37.00;;;;;;5094360;28;20446;-64
2023/05/04 11:56:47;;;;;;;4.33;3.20;;;21.70;36.50;;;;;;5094020;28;20426;-63
2023/05/04 11:59:13;;;;;;;4.63;3.43;;;22.00;36.50;;;;;;5093972;28;20449;-64
2023/05/04 12:01:40;;;;;;;3.47;3.13;;;22.30;36.20;;;;;;5093659;28;20451;-64
2023/05/04 12:04:09;;;;;;;5.63;3.87;;;22.40;35.80;;;;;;5093206;28;20442;-64
2023/05/04 12:06:35;;;;;;;6.77;3.37;;;22.50;36.00;;;;;;5094033;28;20906;-66
2023/05/04 12:09:04;;;;;;;4.47;4.00;;;22.50;35.90;;;;;;5094485;28;20442;-64
2023/05/04 12:11:31;;;;;;;4.07;3.03;;;22.50;35.90;;;;;;5094375;28;20504;-65
2023/05/04 12:14:02;;;;;;;6.10;2.90;;;22.60;35.80;;;;;;5093550;28;20478;-64
2023/05/04 12:16:29;;;;;;;4.80;3.43;;;22.40;35.60;;;;;;5093304;28;20538;-66
2023/05/04 12:19:02;;;;;;;6.10;3.80;;;22.10;35.70;;;;;;5093086;28;20451;-64
2023/05/04 12:21:31;;;;;;;5.47;3.50;;;21.90;35.80;;;;;;5093580;28;20435;-65
2023/05/04 12:23:58;;;;;;;5.50;3.17;;;21.90;36.00;;;;;;5092897;28;20451;-65
2023/05/04 12:26:25;;;;;;;4.17;3.13;;;21.80;36.10;;;;;;5093026;28;20856;-63
2023/05/04 12:28:52;;;;;;;8.20;2.90;;;21.60;36.30;;;;;;5093419;28;20477;-64
2023/05/04 12:31:19;;;;;;;4.37;2.97;;;21.50;36.50;;;;;;5096564;28;20461;-66
2023/05/04 12:33:46;;;;;;;4.00;3.43;;;21.30;36.50;;;;;;5100053;28;20482;-67
2023/05/04 12:36:13;;;;;;;3.60;2.87;;;21.10;36.60;;;;;;5097498;28;20443;-65
2023/05/04 12:38:41;;;;;;;4.10;3.03;;;21.10;36.80;;;;;;5097029;28;20973;-66
2023/05/04 12:41:09;;;;;;;9.30;2.53;;;21.20;37.00;;;;;;5097316;28;20815;-67
2023/05/04 12:43:37;;;;;;;5.57;2.90;;;21.20;37.00;;;;;;5097290;28;20452;-67
2023/05/04 12:46:03;;;;;;;3.67;2.40;;;21.20;36.90;;;;;;5097067;28;20463;-66
2023/05/04 12:48:31;;;;;;;3.77;2.47;;;21.20;36.80;;;;;;5096983;28;20464;-65
2023/05/04 12:50:59;;;;;;;3.27;2.47;;;21.20;36.80;;;;;;5097803;28;20553;-65
2023/05/04 12:53:28;;;;;;;3.60;2.30;;;21.20;36.90;;;;;;5097233;28;20483;-65
2023/05/04 12:55:57;;;;;;;3.60;3.13;;;21.20;36.70;;;;;;5096929;28;20447;-65